Time;durP1;ratioP1;P1;durP2;ratioP2;P2;SDS_P1;SDS_P2;PMS_P1;PMS_P2;Temp;Humidity;BMP_temperature;BMP_pressure;BME280_temperature;BME280_humidity;BME280_pressure;Samples;Min_cycle;Max_cycle;Signal;HPM_P1;HPM_P2
2022/11/16 00:01:33;;;;;;;1.77;1.10;;;;;;;23.91;44.12;98159.13;5101556;28;20054;-59
2022/11/16 00:04:00;;;;;;;1.80;1.00;;;;;;;23.92;44.02;98149.53;5093813;28;20040;-68
2022/11/16 00:06:28;;;;;;;1.65;1.00;;;;;;;23.91;44.04;98159.13;5107560;28;20046;-68
2022/11/16 00:11:42;;;;;;;1.73;1.10;;;;;;;23.92;44.23;98185.06;5103654;28;20070;-60
2022/11/16 00:14:08;;;;;;;1.40;0.90;;;;;;;23.88;44.19;98177.53;5103175;28;20044;-61
2022/11/16 00:16:33;;;;;;;1.75;0.90;;;;;;;23.89;44.39;98183.91;5102581;28;20082;-61
2022/11/16 00:19:02;;;;;;;1.50;0.90;;;;;;;23.89;44.40;98193.06;5098409;28;20054;-61
2022/11/16 00:21:28;;;;;;;1.27;0.85;;;;;;;23.90;44.29;98205.03;5106635;28;20547;-61
2022/11/16 00:23:54;;;;;;;1.70;0.80;;;;;;;23.95;44.23;98207.34;5097763;28;20071;-60
2022/11/16 00:26:20;;;;;;;1.65;1.00;;;;;;;23.95;44.12;98224.09;5107404;28;20078;-69
2022/11/16 00:28:48;;;;;;;1.40;0.90;;;;;;;23.96;44.10;98228.47;5098410;28;20043;-61
2022/11/16 00:31:14;;;;;;;1.27;0.70;;;;;;;23.98;43.94;98234.41;5107482;28;20564;-61
2022/11/16 00:33:40;;;;;;;1.08;0.60;;;;;;;23.98;43.93;98242.00;5096464;28;20056;-61
2022/11/16 00:36:08;;;;;;;1.15;0.77;;;;;;;23.95;43.86;98252.03;5096472;28;20036;-70
2022/11/16 00:38:34;;;;;;;1.10;0.70;;;;;;;23.96;43.85;98267.56;5091853;28;20052;-69
2022/11/16 00:40:59;;;;;;;1.00;0.68;;;;;;;23.95;43.83;98268.00;5103307;28;20055;-60
2022/11/16 00:43:26;;;;;;;1.02;0.60;;;;;;;23.93;44.04;98268.41;5095943;28;20040;-69
2022/11/16 00:45:51;;;;;;;2.05;0.80;;;;;;;23.94;43.94;98278.38;5107786;28;20043;-60
2022/11/16 00:48:17;;;;;;;1.08;0.60;;;;;;;23.91;43.83;98282.00;5107258;28;20085;-61
2022/11/16 00:50:46;;;;;;;1.23;0.73;;;;;;;23.93;44.07;98292.75;5097109;28;20044;-69
2022/11/16 00:53:14;;;;;;;0.98;0.70;;;;;;;23.92;43.99;98296.75;5090511;28;20098;-60
2022/11/16 00:55:40;;;;;;;0.85;0.60;;;;;;;23.91;43.84;98304.34;5103213;28;20116;-69
2022/11/16 00:58:05;;;;;;;1.33;0.70;;;;;;;23.92;43.83;98296.75;5105214;28;20047;-61
2022/11/16 01:00:31;;;;;;;0.98;0.77;;;;;;;23.90;43.86;98291.59;5095770;28;20044;-61
2022/11/16 01:02:57;;;;;;;1.15;0.70;;;;;;;23.91;43.98;98292.41;5099070;28;20108;-69
2022/11/16 01:05:22;;;;;;;0.93;0.65;;;;;;;23.89;43.93;98301.19;5107702;28;20059;-68
2022/11/16 01:07:50;;;;;;;0.93;0.60;;;;;;;23.90;43.87;98300.00;5097337;28;20119;-69
2022/11/16 01:10:19;;;;;;;0.73;0.55;;;;;;;23.89;44.09;98307.56;5091758;28;20075;-69
2022/11/16 01:12:46;;;;;;;0.93;0.68;;;;;;;23.89;43.90;98309.59;5093205;28;20055;-60
2022/11/16 01:15:11;;;;;;;0.93;0.60;;;;;;;23.90;43.92;98308.38;5095516;28;20130;-69
2022/11/16 01:17:38;;;;;;;1.08;0.68;;;;;;;23.88;43.82;98302.41;5097813;28;20504;-69
2022/11/16 01:20:06;;;;;;;0.98;0.60;;;;;;;23.89;43.80;98304.00;5094208;28;20566;-61
2022/11/16 01:22:35;;;;;;;0.80;0.50;;;;;;;23.88;43.91;98300.41;5097922;28;20119;-61
2022/11/16 01:25:00;;;;;;;0.75;0.55;;;;;;;23.88;43.99;98314.38;5098609;28;20036;-68
2022/11/16 01:27:27;;;;;;;0.30;0.30;;;;;;;23.88;44.00;98308.00;5098577;28;20085;-60
2022/11/16 01:29:53;;;;;;;0.70;0.50;;;;;;;23.87;43.89;98309.22;5093779;28;20055;-62
2022/11/16 01:32:21;;;;;;;1.02;0.70;;;;;;;23.86;43.90;98299.25;5095298;28;20048;-69
2022/11/16 01:34:47;;;;;;;1.13;0.70;;;;;;;23.87;43.84;98303.63;5104150;28;20035;-68
2022/11/16 01:37:12;;;;;;;0.82;0.60;;;;;;;23.87;44.07;98301.63;5102937;28;20077;-60
2022/11/16 01:39:38;;;;;;;1.02;0.63;;;;;;;23.85;43.65;98281.69;5103126;28;20096;-60
2022/11/16 01:42:03;;;;;;;0.60;0.43;;;;;;;23.84;44.06;98282.13;5101450;28;20043;-60
2022/11/16 01:44:35;;;;;;;0.95;0.50;;;;;;;23.85;44.04;98295.66;5101066;28;20158;-60
2022/11/16 01:47:06;;;;;;;0.65;0.45;;;;;;;23.85;43.80;98303.25;5104191;28;20121;-61
2022/11/16 01:49:35;;;;;;;0.77;0.45;;;;;;;23.84;44.10;98308.03;5106389;28;20051;-69
2022/11/16 01:52:07;;;;;;;0.73;0.50;;;;;;;23.85;44.10;98311.63;5105050;28;20047;-62
2022/11/16 01:54:37;;;;;;;0.35;0.35;;;;;;;23.85;43.94;98309.63;5105008;28;20527;-60
2022/11/16 01:57:08;;;;;;;0.60;0.50;;;;;;;23.85;43.97;98308.84;5106365;28;20093;-69
2022/11/16 01:59:33;;;;;;;0.45;0.35;;;;;;;23.85;43.86;98303.25;5105816;28;20051;-61
2022/11/16 02:01:59;;;;;;;0.88;0.40;;;;;;;23.84;43.82;98308.03;5089354;28;20083;-68
2022/11/16 02:04:25;;;;;;;0.52;0.43;;;;;;;23.85;43.84;98308.84;5093904;28;20040;-60
2022/11/16 02:07:06;;;;;;;0.40;0.30;;;;;;;23.84;44.02;98304.47;5101629;28;20036;-69
2022/11/16 02:09:53;;;;;;;0.35;0.35;;;;;;;23.85;44.02;98294.88;5104580;28;20596;-68
2022/11/16 02:12:33;;;;;;;0.43;0.32;;;;;;;23.85;43.77;98289.28;5107917;28;20047;-68
2022/11/16 02:14:58;;;;;;;0.40;0.40;;;;;;;23.84;43.92;98276.53;5109898;28;20078;-61
2022/11/16 02:17:24;;;;;;;0.47;0.40;;;;;;;23.84;43.77;98279.34;5108883;28;20075;-68
2022/11/16 02:20:24;;;;;;;0.52;0.47;;;;;;;23.84;43.93;98276.53;5109635;28;21034;-68
2022/11/16 02:23:24;;;;;;;0.50;0.40;;;;;;;23.84;43.66;98276.53;5109028;28;20046;-60
2022/11/16 02:26:14;;;;;;;0.35;0.35;;;;;;;23.83;43.70;98267.38;5102191;28;20040;-60
2022/11/16 02:28:50;;;;;;;0.70;0.40;;;;;;;23.81;43.79;98247.47;5104317;28;20507;-60
2022/11/16 02:31:25;;;;;;;0.30;0.30;;;;;;;23.81;43.86;98246.69;5105307;28;20043;-69
2022/11/16 02:33:53;;;;;;;0.45;0.30;;;;;;;23.80;43.91;98253.47;5099100;28;20308;-69
2022/11/16 02:36:23;;;;;;;0.73;0.40;;;;;;;23.81;43.71;98257.84;5096117;28;20130;-60
2022/11/16 02:38:56;;;;;;;0.57;0.40;;;;;;;23.82;43.89;98251.84;5097709;28;20067;-68
2022/11/16 02:41:25;;;;;;;2.47;0.50;;;;;;;23.85;43.58;98245.38;5098440;28;20461;-60
2022/11/16 02:44:03;;;;;;;0.30;0.30;;;;;;;23.86;43.61;98246.19;5089007;28;20039;-60
2022/11/16 02:46:34;;;;;;;0.50;0.30;;;;;;;23.89;43.87;98239.75;5107727;28;20043;-61
2022/11/16 02:49:05;;;;;;;0.50;0.30;;;;;;;23.89;43.66;98236.97;5104960;28;20035;-68
2022/11/16 02:51:33;;;;;;;0.40;0.30;;;;;;;23.89;43.70;98231.38;5106584;28;20075;-69
2022/11/16 02:54:07;;;;;;;0.20;0.20;;;;;;;23.87;43.56;98220.66;5100864;28;20055;-69
2022/11/16 02:56:54;;;;;;;1.10;0.40;;;;;;;23.88;43.51;98215.84;5096683;28;20039;-69
2022/11/16 02:59:22;;;;;;;0.47;0.40;;;;;;;23.86;43.45;98215.47;5098804;28;20123;-61
2022/11/16 03:02:19;;;;;;;0.35;0.28;;;;;;;23.86;43.64;98218.25;5091817;28;20489;-69
2022/11/16 03:04:55;;;;;;;0.38;0.30;;;;;;;23.85;43.48;98211.88;5098739;28;20044;-70
2022/11/16 03:07:28;;;;;;;0.57;0.50;;;;;;;23.85;43.55;98213.88;5103136;28;20043;-69
2022/11/16 03:09:55;;;;;;;0.55;0.43;;;;;;;23.86;43.56;98215.47;5091099;28;20044;-69
2022/11/16 03:12:28;;;;;;;0.50;0.30;;;;;;;23.85;43.60;98216.69;5105642;28;20044;-69
2022/11/16 03:15:00;;;;;;;0.63;0.30;;;;;;;23.84;43.69;98223.47;5098377;28;20042;-61
2022/11/16 03:17:39;;;;;;;0.30;0.30;;;;;;;23.82;43.75;98215.53;5107843;28;20086;-61
2022/11/16 03:20:21;;;;;;;0.28;0.20;;;;;;;23.83;43.43;98219.91;5092584;28;20043;-61
2022/11/16 03:22:52;;;;;;;0.40;0.30;;;;;;;23.82;43.79;98206.38;5104445;28;20124;-69
2022/11/16 03:25:19;;;;;;;0.38;0.30;;;;;;;23.83;43.64;98205.16;5103358;28;20073;-68
2022/11/16 03:27:56;;;;;;;0.32;0.30;;;;;;;23.82;43.58;98206.38;5095413;28;20052;-68
2022/11/16 03:30:24;;;;;;;0.22;0.22;;;;;;;23.81;43.48;98211.16;5097177;28;20042;-68
2022/11/16 03:32:56;;;;;;;0.20;0.20;;;;;;;23.82;43.50;98214.75;5102060;28;20039;-61
2022/11/16 03:35:39;;;;;;;0.30;0.30;;;;;;;23.81;43.29;98210.38;5102106;28;20400;-70
2022/11/16 03:38:06;;;;;;;0.40;0.30;;;;;;;23.79;43.36;98210.00;5104349;28;20443;-61
2022/11/16 03:40:35;;;;;;;0.28;0.22;;;;;;;23.81;43.40;98215.97;5103400;28;20066;-69
2022/11/16 03:43:03;;;;;;;0.50;0.30;;;;;;;23.81;43.47;98213.19;5102730;28;20545;-61
2022/11/16 03:45:30;;;;;;;0.30;0.30;;;;;;;23.81;43.29;98213.19;5093177;28;20455;-61
2022/11/16 03:47:55;;;;;;;0.35;0.20;;;;;;;23.81;43.48;98215.97;5093197;28;20067;-69
2022/11/16 03:50:21;;;;;;;0.40;0.30;;;;;;;23.80;43.33;98206.81;5095948;28;20083;-61
2022/11/16 03:52:46;;;;;;;0.63;0.38;;;;;;;23.80;43.24;98215.19;5098776;28;20515;-61
2022/11/16 03:55:11;;;;;;;0.30;0.20;;;;;;;23.81;43.38;98213.19;5101701;28;20063;-61
2022/11/16 03:57:37;;;;;;;0.10;0.10;;;;;;;23.79;43.17;98210.00;5106437;28;20488;-61
2022/11/16 04:00:04;;;;;;;0.30;0.20;;;;;;;23.79;43.40;98208.03;5107184;28;20036;-61
2022/11/16 04:02:29;;;;;;;0.30;0.30;;;;;;;23.78;43.08;98214.00;5104691;28;20058;-60
2022/11/16 04:24:18;;;;;;;0.43;0.30;;;;;;;23.76;42.84;98224.81;5104155;28;20050;-60
2022/11/16 04:29:34;;;;;;;0.15;0.15;;;;;;;23.76;42.97;98216.44;5114914;28;20046;-69
2022/11/16 04:40:11;;;;;;;0.20;0.20;;;;;;;23.75;43.05;98224.03;5123451;28;20093;-70
2022/11/16 04:42:36;;;;;;;0.30;0.20;;;;;;;23.75;42.87;98220.44;5127607;28;20051;-61
2022/11/16 04:47:49;;;;;;;0.20;0.20;;;;;;;23.74;42.92;98225.25;5093183;28;20086;-61
2022/11/16 04:50:15;;;;;;;0.30;0.30;;;;;;;23.75;42.83;98228.81;5104442;28;20041;-62
2022/11/16 04:52:40;;;;;;;0.20;0.20;;;;;;;23.76;42.94;98227.59;5126644;28;20059;-61
2022/11/16 04:55:06;;;;;;;0.35;0.22;;;;;;;23.78;42.70;98220.38;5127935;28;20034;-70
2022/11/16 04:57:31;;;;;;;0.17;0.15;;;;;;;23.82;42.85;98231.50;5126511;28;20047;-69
2022/11/16 04:59:57;;;;;;;0.32;0.20;;;;;;;23.82;42.92;98223.91;5101915;28;20070;-61
2022/11/16 05:02:22;;;;;;;0.68;0.40;;;;;;;23.82;42.77;98226.69;5092542;28;20048;-69
2022/11/16 05:04:47;;;;;;;0.47;0.40;;;;;;;23.81;42.64;98218.75;5118548;28;20027;-68
2022/11/16 05:07:13;;;;;;;0.22;0.20;;;;;;;23.82;42.85;98223.13;5120891;28;20067;-59
2022/11/16 05:09:43;;;;;;;0.35;0.30;;;;;;;23.81;42.68;98224.34;5097705;28;20491;-70
2022/11/16 05:12:10;;;;;;;0.30;0.30;;;;;;;23.80;42.73;98214.38;5127698;28;20058;-68
2022/11/16 05:14:36;;;;;;;0.20;0.20;;;;;;;23.77;42.49;98216.00;5124454;28;20084;-61
2022/11/16 05:17:01;;;;;;;0.22;0.22;;;;;;;23.77;42.53;98220.81;5129140;28;20043;-68
2022/11/16 05:22:11;;;;;;;0.40;0.40;;;;;;;23.78;42.50;98223.16;5123748;28;20126;-68
2022/11/16 05:24:38;;;;;;;0.30;0.20;;;;;;;23.79;42.83;98226.75;5126605;28;20122;-61
2022/11/16 05:27:11;;;;;;;0.40;0.30;;;;;;;23.77;42.50;98215.22;5107172;28;20032;-62
2022/11/16 05:29:36;;;;;;;0.30;0.30;;;;;;;23.78;42.32;98214.78;5101454;28;20046;-61
2022/11/16 05:32:03;;;;;;;0.30;0.30;;;;;;;23.78;42.42;98219.59;5125728;28;20035;-69
2022/11/16 05:34:28;;;;;;;0.40;0.30;;;;;;;23.77;42.34;98221.59;5126077;28;20088;-70
2022/11/16 05:36:55;;;;;;;0.20;0.20;;;;;;;23.76;42.45;98222.81;5128581;28;20043;-61
2022/11/16 05:39:20;;;;;;;0.28;0.20;;;;;;;23.78;42.34;98225.16;5123591;28;20141;-61
2022/11/16 05:41:46;;;;;;;0.20;0.20;;;;;;;23.76;42.45;98222.81;5125371;28;20485;-69
2022/11/16 05:44:13;;;;;;;0.38;0.25;;;;;;;23.77;42.28;98220.81;5130070;28;20410;-62
2022/11/16 05:46:38;;;;;;;0.20;0.20;;;;;;;23.75;42.17;98200.91;5124907;28;20035;-70
2022/11/16 05:49:06;;;;;;;0.20;0.20;;;;;;;23.75;42.33;98206.50;5130302;28;20121;-61
2022/11/16 05:51:33;;;;;;;0.52;0.20;;;;;;;23.73;42.29;98206.13;5130301;28;20507;-69
2022/11/16 05:53:58;;;;;;;0.22;0.22;;;;;;;23.72;42.31;98207.31;5126248;28;20063;-61
2022/11/16 05:56:24;;;;;;;0.20;0.20;;;;;;;23.73;42.28;98208.94;5129170;28;20066;-67
2022/11/16 05:58:50;;;;;;;0.30;0.22;;;;;;;23.74;42.13;98211.28;5127537;28;20122;-60
2022/11/16 06:01:16;;;;;;;0.60;0.35;;;;;;;23.75;42.17;98220.44;5130132;28;20031;-68
2022/11/16 06:03:41;;;;;;;0.32;0.20;;;;;;;23.74;42.18;98225.25;5128163;28;20040;-68
2022/11/16 06:06:06;;;;;;;0.20;0.20;;;;;;;23.75;42.18;98218.44;5130701;28;20043;-60
2022/11/16 06:08:32;;;;;;;0.30;0.28;;;;;;;23.73;42.23;98220.09;5131093;28;20035;-69
2022/11/16 06:11:04;;;;;;;0.22;0.22;;;;;;;23.73;42.27;98209.72;5129230;28;20043;-69
2022/11/16 06:13:31;;;;;;;0.13;0.13;;;;;;;23.74;42.13;98211.28;5098121;28;20028;-61
2022/11/16 06:15:56;;;;;;;0.25;0.25;;;;;;;23.75;42.16;98214.88;5126013;28;20043;-68
2022/11/16 06:18:22;;;;;;;0.20;0.20;;;;;;;23.77;42.13;98212.44;5130176;28;20122;-61
2022/11/16 06:20:48;;;;;;;0.28;0.28;;;;;;;23.78;42.20;98205.63;5128467;28;20070;-61
2022/11/16 06:23:13;;;;;;;0.75;0.40;;;;;;;23.79;42.10;98212.78;5129766;28;20046;-69
2022/11/16 06:25:40;;;;;;;0.20;0.20;;;;;;;23.78;41.99;98206.41;5109041;28;20039;-69
2022/11/16 06:28:07;;;;;;;0.47;0.30;;;;;;;23.82;42.02;98214.75;5127892;28;20037;-68
2022/11/16 06:30:33;;;;;;;0.70;0.28;;;;;;;23.82;41.69;98211.97;5121078;28;20145;-61
2022/11/16 06:32:58;;;;;;;0.10;0.10;;;;;;;23.81;41.67;98213.97;5129022;28;20068;-61
2022/11/16 06:35:24;;;;;;;0.32;0.10;;;;;;;23.83;41.78;98222.69;5126488;28;20117;-61
2022/11/16 06:37:49;;;;;;;0.20;0.20;;;;;;;23.83;41.75;98230.28;5124240;28;20040;-68
2022/11/16 06:40:15;;;;;;;0.30;0.30;;;;;;;23.84;41.67;98235.44;5126243;28;20043;-68
2022/11/16 06:42:40;;;;;;;0.30;0.20;;;;;;;23.85;41.71;98225.84;5124844;28;20398;-60
2022/11/16 06:45:06;;;;;;;0.10;0.10;;;;;;;23.86;41.64;98238.63;5123812;28;20477;-61
2022/11/16 06:47:32;;;;;;;0.25;0.20;;;;;;;23.85;41.63;98237.00;5128732;28;20047;-68
2022/11/16 06:49:57;;;;;;;0.25;0.20;;;;;;;23.87;41.66;98237.41;5124933;28;20610;-68
2022/11/16 06:52:23;;;;;;;0.35;0.30;;;;;;;23.87;41.50;98239.41;5128999;27;20043;-62
2022/11/16 06:54:48;;;;;;;0.30;0.30;;;;;;;23.89;41.55;98231.38;5130730;28;20032;-61
2022/11/16 06:57:13;;;;;;;0.17;0.17;;;;;;;23.88;41.51;98229.81;5127195;28;20048;-61
2022/11/16 06:59:39;;;;;;;0.30;0.30;;;;;;;23.86;41.51;98226.63;5129605;28;20057;-61
2022/11/16 07:02:06;;;;;;;0.28;0.20;;;;;;;23.89;41.27;98231.38;5127937;28;20040;-69
2022/11/16 07:04:31;;;;;;;0.40;0.30;;;;;;;23.88;41.49;98218.63;5129453;28;20054;-61
2022/11/16 07:06:57;;;;;;;0.30;0.30;;;;;;;23.89;41.36;98218.22;5128197;28;20035;-69
2022/11/16 07:09:22;;;;;;;0.20;0.20;;;;;;;23.87;41.37;98208.69;5129984;28;20062;-69
2022/11/16 07:11:49;;;;;;;0.30;0.30;;;;;;;23.90;41.36;98219.00;5125467;28;20407;-61
2022/11/16 07:14:16;;;;;;;0.32;0.30;;;;;;;23.91;41.40;98217.78;5101386;28;20039;-69
2022/11/16 07:16:42;;;;;;;0.38;0.10;;;;;;;23.89;41.19;98226.59;5102166;28;20039;-69
2022/11/16 07:19:09;;;;;;;0.20;0.20;;;;;;;23.91;41.36;98223.38;5128602;28;20035;-70
2022/11/16 07:21:37;;;;;;;0.40;0.30;;;;;;;23.91;41.30;98230.94;5099716;28;20039;-62
2022/11/16 07:24:04;;;;;;;0.17;0.17;;;;;;;23.91;41.31;98231.75;5111462;28;20526;-69
2022/11/16 07:26:32;;;;;;;0.40;0.30;;;;;;;23.89;41.27;98231.38;5126974;28;20074;-70
2022/11/16 07:28:58;;;;;;;0.80;0.30;;;;;;;23.91;41.11;98242.91;5124662;28;20046;-62
2022/11/16 07:31:25;;;;;;;0.30;0.30;;;;;;;23.89;41.21;98237.75;5127704;28;20051;-68
2022/11/16 07:33:51;;;;;;;0.20;0.20;;;;;;;23.92;41.09;98232.53;5128924;28;20530;-69
2022/11/16 07:36:17;;;;;;;0.75;0.30;;;;;;;23.96;41.26;98239.66;5114324;28;20139;-69
2022/11/16 07:38:43;;;;;;;1.38;0.30;;;;;;;23.97;41.22;98237.63;5109776;28;20070;-61
2022/11/16 07:41:14;;;;;;;0.20;0.20;;;;;;;23.99;41.28;98238.00;5126006;28;20082;-61
2022/11/16 07:43:41;;;;;;;0.43;0.30;;;;;;;23.98;41.07;98242.00;5127351;28;20120;-61
2022/11/16 07:46:14;;;;;;;3.67;2.63;;;;;;;23.74;39.53;98241.22;5101284;28;20495;-68
2022/11/16 07:48:41;;;;;;;;;;;;;;;23.30;39.86;98245.81;5119441;28;20522;-70
2022/11/16 07:51:09;;;;;;;6.43;3.00;;;;;;;23.13;40.74;98241.25;5117012;28;20392;-70
2022/11/16 07:53:35;;;;;;;4.45;2.25;;;;;;;23.16;40.83;98241.22;5118745;28;20063;-61
2022/11/16 07:56:03;;;;;;;3.88;1.80;;;;;;;23.19;41.24;98240.38;5113325;28;20043;-62
2022/11/16 07:58:31;;;;;;;4.07;2.00;;;;;;;23.20;42.71;98246.75;5117328;28;20061;-56
2022/11/16 08:01:14;;;;;;;2.63;1.40;;;;;;;23.31;42.80;98250.19;5112893;28;20194;-55
2022/11/16 08:03:40;;;;;;;3.47;1.33;;;;;;;23.40;43.10;98244.88;5112886;28;20061;-69
2022/11/16 08:06:07;;;;;;;5.18;1.60;;;;;;;23.53;42.88;98259.03;5117948;28;20055;-65
2022/11/16 08:08:33;;;;;;;4.38;1.10;;;;;;;23.58;42.93;98262.16;5075533;28;20084;-61
2022/11/16 08:11:01;;;;;;;3.75;1.48;;;;;;;23.67;43.23;98266.44;5085889;28;20152;-60
2022/11/16 08:13:30;;;;;;;3.90;1.00;;;;;;;23.74;42.72;98264.34;5090253;28;20048;-62
2022/11/16 08:16:06;;;;;;;1.42;0.80;;;;;;;23.80;42.30;98261.84;5075695;28;20048;-59
2022/11/16 08:18:32;;;;;;;3.92;0.80;;;;;;;23.87;42.14;98261.75;5085108;28;20060;-61
2022/11/16 08:20:58;;;;;;;2.13;1.00;;;;;;;23.92;42.23;98258.44;5073553;28;20043;-62
2022/11/16 08:23:31;;;;;;;2.10;1.00;;;;;;;23.99;42.92;98275.09;5087011;28;20076;-55
2022/11/16 08:26:05;;;;;;;1.83;0.80;;;;;;;24.03;42.12;98264.66;5085580;28;20407;-53
2022/11/16 08:28:31;;;;;;;2.67;0.90;;;;;;;24.08;42.24;98272.56;5082766;28;20083;-67
2022/11/16 08:30:57;;;;;;;1.35;0.65;;;;;;;24.12;42.12;98266.91;5095894;28;20158;-55
2022/11/16 08:33:28;;;;;;;2.28;0.80;;;;;;;24.16;42.65;98262.84;5116740;28;20150;-65
2022/11/16 08:35:54;;;;;;;4.47;0.80;;;;;;;24.21;42.16;98269.16;5097007;28;20058;-54
2022/11/16 08:38:20;;;;;;;2.45;0.80;;;;;;;24.26;42.27;98261.06;5114748;28;20043;-49
2022/11/16 08:40:46;;;;;;;1.88;0.70;;;;;;;24.27;41.95;98257.06;5073915;28;21422;-56
2022/11/16 08:43:12;;;;;;;7.53;1.50;;;;;;;24.29;40.68;98265.00;5099809;28;20462;-56
2022/11/16 08:45:38;;;;;;;4.28;1.20;;;;;;;24.21;41.71;98258.75;5105843;28;20096;-53
2022/11/16 08:48:04;;;;;;;4.72;1.27;;;;;;;24.28;41.73;98255.06;5096602;28;20042;-55
2022/11/16 08:50:30;;;;;;;4.78;1.48;;;;;;;24.31;41.58;98257.00;5088198;28;20087;-56
2022/11/16 08:52:56;;;;;;;2.83;1.65;;;;;;;24.31;41.59;98262.59;5094570;28;20089;-60
2022/11/16 08:55:23;;;;;;;6.93;2.10;;;;;;;24.34;41.88;98270.94;5088945;28;20085;-62
2022/11/16 08:57:48;;;;;;;6.10;2.00;;;;;;;24.37;41.88;98267.31;5089096;28;20059;-54
2022/11/16 09:00:14;;;;;;;4.68;1.90;;;;;;;24.42;42.11;98258.41;5086963;28;20035;-63
2022/11/16 09:02:40;;;;;;;7.80;1.98;;;;;;;24.46;42.64;98261.16;5098206;28;20043;-63
2022/11/16 09:05:06;;;;;;;6.68;2.00;;;;;;;24.55;42.40;98260.59;5113106;28;20043;-61
2022/11/16 09:07:32;;;;;;;17.08;2.03;;;;;;;24.55;42.83;98255.00;5114543;28;20075;-58
2022/11/16 09:09:58;;;;;;;6.97;1.60;;;;;;;24.59;42.56;98250.94;5113354;28;20137;-56
2022/11/16 09:12:23;;;;;;;6.22;1.85;;;;;;;24.65;42.55;98254.81;5117204;28;20107;-63
2022/11/16 09:14:49;;;;;;;5.20;1.70;;;;;;;24.68;42.66;98262.31;5114779;27;20217;-57
2022/11/16 09:17:16;;;;;;;3.10;1.40;;;;;;;24.73;42.50;98251.88;5097453;28;20464;-65
2022/11/16 09:19:41;;;;;;;4.93;1.30;;;;;;;24.73;42.11;98260.25;5114310;28;20523;-61
2022/11/16 09:22:09;;;;;;;4.13;1.40;;;;;;;24.76;41.95;98262.97;5115396;28;20499;-60
2022/11/16 09:24:34;;;;;;;5.07;1.20;;;;;;;24.77;41.59;98255.38;5116703;28;20050;-53
2022/11/16 09:27:00;;;;;;;5.13;1.13;;;;;;;24.80;42.03;98255.31;5115673;28;20039;-66
2022/11/16 09:29:26;;;;;;;6.15;1.52;;;;;;;24.86;42.22;98264.78;5118060;28;20043;-69
2022/11/16 09:31:55;;;;;;;5.82;1.40;;;;;;;24.90;42.29;98267.50;5115554;28;20050;-51
2022/11/16 09:34:20;;;;;;;27.13;4.40;;;;;;;24.95;42.07;98255.81;5091396;28;20056;-53
2022/11/16 09:36:46;;;;;;;24.23;4.22;;;;;;;24.98;41.71;98271.72;5114231;28;20055;-51
2022/11/16 09:39:12;;;;;;;18.42;3.47;;;;;;;25.03;42.14;98278.84;5094964;28;20055;-66
2022/11/16 09:41:58;;;;;;;14.98;3.22;;;;;;;25.07;42.31;98279.56;5119041;28;20055;-64
2022/11/16 09:44:46;;;;;;;11.20;2.55;;;;;;;25.10;41.80;98279.50;5087598;28;20693;-48
2022/11/16 09:47:30;;;;;;;13.85;2.70;;;;;;;25.08;42.33;98272.78;5113480;28;20181;-60
2022/11/16 09:50:00;;;;;;;14.93;2.70;;;;;;;25.12;41.96;98274.25;5107199;28;20047;-51
2022/11/16 09:52:33;;;;;;;11.20;2.40;;;;;;;25.13;41.96;98278.63;5109494;28;20459;-46
2022/11/16 09:55:23;;;;;;;12.50;2.38;;;;;;;25.17;41.56;98284.94;5109171;28;20335;-49
2022/11/16 09:57:51;;;;;;;7.93;2.38;;;;;;;25.19;41.73;98287.31;5115725;28;20047;-61
2022/11/16 10:00:21;;;;;;;17.15;2.80;;;;;;;25.20;41.22;98288.88;5109964;28;20082;-49
2022/11/16 10:02:55;;;;;;;10.27;1.90;;;;;;;25.17;41.59;98284.94;5111204;28;20054;-49
2022/11/16 10:05:41;;;;;;;9.23;2.25;;;;;;;25.14;41.27;98269.00;5112919;28;20535;-50
2022/11/16 10:08:28;;;;;;;7.40;1.65;;;;;;;25.15;41.20;98273.41;5109007;28;20075;-48
2022/11/16 10:11:21;;;;;;;6.45;1.70;;;;;;;25.15;41.36;98262.22;5111551;28;20073;-51
2022/11/16 10:13:53;;;;;;;5.35;1.50;;;;;;;25.12;41.27;98267.88;5066391;28;20542;-50
2022/11/16 10:16:32;;;;;;;7.28;1.50;;;;;;;25.11;41.49;98269.88;5091944;28;20047;-61
2022/11/16 10:19:10;;;;;;;7.57;1.70;;;;;;;25.09;41.95;98254.75;5086072;28;20048;-61
2022/11/16 10:21:47;;;;;;;8.38;1.75;;;;;;;25.13;42.12;98245.03;5084628;28;20047;-62
2022/11/16 10:24:35;;;;;;;4.97;1.42;;;;;;;25.14;42.12;98260.63;5111793;28;20116;-63
2022/11/16 10:27:22;;;;;;;3.05;1.30;;;;;;;25.15;41.33;98245.44;5070911;28;20049;-61
2022/11/16 10:29:47;;;;;;;4.25;1.30;;;;;;;25.13;41.52;98239.44;5082580;28;20098;-49
2022/11/16 10:32:33;;;;;;;2.80;1.00;;;;;;;25.11;41.42;98232.72;5110842;28;20733;-61
2022/11/16 10:35:11;;;;;;;5.07;1.17;;;;;;;25.10;41.26;98228.34;5114918;28;20043;-60
2022/11/16 10:37:46;;;;;;;5.13;1.23;;;;;;;25.13;41.60;98233.06;5112330;28;20043;-52
2022/11/16 10:40:20;;;;;;;2.35;0.90;;;;;;;25.14;41.20;98235.44;5114538;28;20051;-52
2022/11/16 10:42:56;;;;;;;4.20;1.27;;;;;;;25.17;41.44;98234.59;5112031;28;20067;-58
2022/11/16 10:45:30;;;;;;;4.18;0.95;;;;;;;25.17;41.18;98220.59;5116866;28;20170;-51
2022/11/16 10:48:03;;;;;;;4.53;1.10;;;;;;;25.14;41.44;98210.25;5115583;28;20053;-59
2022/11/16 10:50:48;;;;;;;2.40;0.88;;;;;;;25.11;41.16;98196.34;5094947;28;20077;-58
2022/11/16 10:53:25;;;;;;;3.92;1.00;;;;;;;25.16;41.20;98210.63;5117708;28;20134;-47
2022/11/16 10:56:08;;;;;;;2.25;0.80;;;;;;;25.15;41.85;98213.84;5120183;28;20043;-63
2022/11/16 10:58:52;;;;;;;;;;;;;;;25.22;41.17;98211.69;5097463;28;20829;-61
2022/11/16 11:01:51;;;;;;;2.38;0.80;;;;;;;25.19;41.49;98204.16;5098498;28;19947;-60
2022/11/16 11:04:19;;;;;;;4.35;1.02;;;;;;;25.16;41.36;98205.03;5111120;28;20085;-60
2022/11/16 11:06:47;;;;;;;4.10;0.95;;;;;;;25.15;41.70;98197.84;5119614;28;20043;-58
2022/11/16 11:09:32;;;;;;;2.65;0.90;;;;;;;25.17;41.61;98189.81;5119130;28;20043;-55
2022/11/16 11:15:02;;;;;;;3.83;1.50;;;;;;;25.16;41.29;98179.84;5123194;28;20545;-57
2022/11/16 11:17:30;;;;;;;5.75;1.40;;;;;;;25.15;41.77;98175.47;5089564;28;20148;-57
2022/11/16 11:20:13;;;;;;;4.20;1.10;;;;;;;25.16;41.58;98162.25;5112741;28;20391;-54
2022/11/16 11:22:55;;;;;;;1.60;0.82;;;;;;;25.10;41.41;98153.59;5121647;28;20054;-54
2022/11/16 11:25:40;;;;;;;1.65;0.90;;;;;;;25.12;41.66;98150.34;5086955;28;20039;-57
2022/11/16 11:28:15;;;;;;;3.63;1.00;;;;;;;25.10;41.53;98155.59;5096280;28;20075;-59
2022/11/16 11:30:50;;;;;;;2.17;0.98;;;;;;;25.10;41.17;98150.00;5095134;28;20041;-56
2022/11/16 11:33:17;;;;;;;2.97;1.20;;;;;;;25.12;41.30;98137.16;5110259;28;20051;-56
2022/11/16 11:35:43;;;;;;;1.63;0.88;;;;;;;25.10;41.32;98139.59;5119571;28;20130;-56
2022/11/16 11:38:13;;;;;;;3.45;1.10;;;;;;;25.06;41.39;98136.09;5100589;28;20480;-56
2022/11/16 11:40:56;;;;;;;2.40;0.80;;;;;;;25.06;41.45;98124.91;5124538;28;20043;-58
2022/11/16 11:43:23;;;;;;;3.03;1.13;;;;;;;25.08;41.27;98127.28;5123637;28;20043;-58
2022/11/16 11:45:55;;;;;;;2.20;1.02;;;;;;;25.10;41.21;98122.03;5113095;28;20091;-56
2022/11/16 11:48:31;;;;;;;2.28;0.80;;;;;;;25.09;41.18;98118.44;5118009;28;20043;-58
2022/11/16 11:51:01;;;;;;;2.60;0.85;;;;;;;25.06;41.19;98098.94;5120338;28;20054;-56
2022/11/16 11:53:29;;;;;;;2.78;0.80;;;;;;;25.06;41.29;98099.72;5114190;27;20116;-57
2022/11/16 11:55:57;;;;;;;2.13;0.90;;;;;;;25.06;41.02;98091.31;5119932;28;20076;-56
2022/11/16 11:58:30;;;;;;;5.35;0.80;;;;;;;25.06;41.22;98085.72;5122218;28;20122;-57
2022/11/16 12:01:27;;;;;;;1.50;0.80;;;;;;;25.09;41.21;98078.50;5123740;28;20392;-58
2022/11/16 12:04:27;;;;;;;1.20;0.60;;;;;;;25.06;40.96;98065.34;5109397;28;20051;-56
2022/11/16 12:07:10;;;;;;;2.65;0.70;;;;;;;25.03;40.78;98061.41;5111947;28;20109;-57
2022/11/16 12:09:46;;;;;;;0.85;0.55;;;;;;;25.01;40.94;98054.69;5108984;28;20043;-58
2022/11/16 12:12:14;;;;;;;1.63;0.65;;;;;;;24.99;40.88;98050.28;5075630;28;20054;-56
2022/11/16 12:14:56;;;;;;;1.00;0.55;;;;;;;24.99;40.88;98050.28;5078770;28;20103;-57
2022/11/16 12:18:04;;;;;;;1.13;0.60;;;;;;;25.01;40.88;98037.88;5096267;28;20142;-56
2022/11/16 12:20:44;;;;;;;2.00;0.60;;;;;;;25.00;40.85;98025.88;5033695;28;20053;-58
2022/11/16 12:23:22;;;;;;;2.05;0.60;;;;;;;24.98;40.90;98029.13;5035814;28;20045;-56
2022/11/16 12:26:00;;;;;;;1.23;0.50;;;;;;;24.99;41.11;98024.31;5034558;28;20477;-57
2022/11/16 12:28:36;;;;;;;0.90;0.55;;;;;;;24.97;41.33;98021.19;5033316;28;20079;-58
2022/11/16 12:31:27;;;;;;;0.73;0.40;;;;;;;24.97;41.58;98021.97;5023209;28;20092;-59